Strona główna
METAR-TAF:

METAR-TAF

Lotnisko :

Coatesville, Pensylwania, Stany Zjednoczone

Szerokość geograficzna: 39-58-44N, Długość geograficzna: 075-51-56W, wysokość: 201 m

Aktualna obserwacja pogody

Raport powstał 26 minut temu, godzina 11:15 UTC
Wiatr 3 kt z kierunków zmiennych
Temperatura 22°C
Wilgotność 100%
Ciśnienie 1011 hPa
Widzialność: 3.2 km
Zachmurzenie całkowite na wysokości 100 ft
zamglenie

METAR: KMQS 251115Z AUTO VRB03KT 2SM BR OVC001 22/22 A2984 RMK AO2

czas: 07:41 (11:41 UTC)


TAF: brakujący

Obserwacja i prognoza pogody dla ponad 4000 lotnisk (raport METAR i TAF).

Dostępne stacje oznaczono żółtymi i czerwonymi punktami na mapie.

Najedź kursorem aby zobaczyć nazwę stacji.

Kliknij aby zobaczyć obserwacje i prognozy pogody.

Aby zmienić mapę: kliknij na zielony przycisk z czarnym krzyżykiem, aby powiększyć; na zielony przycisk z myślnikiem, aby pomniejszyć; na zielone strzałki, aby przejść do map sąsiednich.


METAR-TAF: